.
WxDataArchive / Data Records for 2006-03-21
2006-03-20 March 2006 2006-03-22

Data Records for Tuesday, 21 March 2006

Time	Temp	Chill	HIndex	Humid	Dewpt	 Wind 	HiWind	WindDir	Rain 	Barom 
-----	----	-----	------	-----	-----	------	------	-------	-----	----- 
00:00	27.0	20.3	27.0	72	19.2	6	12	112	0.00	30.093 
00:05	27.0	21.2	27.0	73	19.5	5	11	112	0.00	30.093 
00:10	27.0	21.2	27.0	73	19.5	5	9	112	0.00	30.093 
00:15	27.0	22.3	27.0	74	19.8	4	12	112	0.00	30.084 
00:20	26.7	19.9	26.7	74	19.5	6	11	112	0.00	30.084 
00:25	26.6	21.8	26.6	75	19.8	4	9	112	0.00	30.084 
00:30	26.4	20.5	26.4	74	19.3	5	12	112	0.00	30.064 
00:35	26.3	26.3	26.3	74	19.2	3	12	112	0.00	30.064 
00:40	26.1	20.1	26.1	73	18.7	5	12	112	0.00	30.064 
00:45	26.1	20.1	26.1	73	18.7	5	11	112	0.00	30.067 
00:50	26.1	21.3	26.1	73	18.7	4	9	112	0.00	30.067 
00:55	26.1	21.3	26.1	72	18.3	4	10	112	0.00	30.067 
01:00	26.1	19.2	26.1	72	18.3	6	15	112	0.00	30.069 
01:05	26.0	26.0	26.0	73	18.6	2	10	68	0.00	30.069 
01:10	26.0	19.1	26.0	72	18.2	6	14	112	0.00	30.069 
01:15	26.0	20.0	26.0	72	18.2	5	12	112	0.00	30.066 
01:20	26.0	21.1	26.0	72	18.2	4	12	112	0.00	30.066 
01:25	25.8	25.8	25.8	73	18.4	3	10	90	0.00	30.066 
01:30	25.8	20.9	25.8	73	18.4	4	14	112	0.00	30.074 
01:35	25.8	18.8	25.8	72	18.0	6	14	112	0.00	30.074 
01:40	25.7	19.7	25.7	71	17.6	5	11	112	0.00	30.074 
01:45	25.7	19.7	25.7	71	17.6	5	12	112	0.00	30.086 
01:50	25.6	20.7	25.6	69	16.9	4	10	112	0.00	30.086 
01:55	25.4	20.5	25.4	69	16.7	4	12	112	0.00	30.086 
02:00	25.3	19.2	25.3	69	16.6	5	15	90	0.00	30.080 
02:05	25.3	20.3	25.3	70	16.9	4	11	112	0.00	30.080 
02:10	25.1	20.1	25.1	70	16.7	4	14	112	0.00	30.080 
02:15	25.0	20.0	25.0	71	16.9	4	12	45	0.00	30.075 
02:20	25.0	18.9	25.0	71	16.9	5	14	45	0.00	30.075 
02:25	25.0	20.0	25.0	72	17.3	4	11	90	0.00	30.075 
02:30	24.8	18.6	24.8	71	16.8	5	12	112	0.00	30.073 
02:35	24.7	19.6	24.7	72	17.0	4	12	90	0.00	30.073 
02:40	24.5	18.3	24.5	71	16.5	5	16	112	0.00	30.073 
02:45	24.4	17.2	24.4	71	16.4	6	13	112	0.00	30.067 
02:50	24.4	18.1	24.4	72	16.7	5	14	112	0.00	30.067 
02:55	24.2	17.9	24.2	71	16.2	5	19	112	0.00	30.067 
03:00	24.1	19.0	24.1	72	16.4	4	10	112	0.00	30.070 
03:05	24.1	17.8	24.1	70	15.8	5	16	68	0.00	30.070 
03:10	23.9	17.6	23.9	72	16.2	5	13	22	0.00	30.070 
03:15	23.9	17.6	23.9	71	15.9	5	13	112	0.00	30.074 
03:20	23.9	17.6	23.9	71	15.9	5	15	112	0.00	30.074 
03:25	23.8	18.6	23.8	71	15.8	4	12	112	0.00	30.074 
03:30	23.8	18.6	23.8	71	15.8	4	10	112	0.00	30.078 
03:35	23.6	17.2	23.6	71	15.6	5	16	22	0.00	30.078 
03:40	23.6	17.2	23.6	70	15.3	5	13	112	0.00	30.078 
03:45	23.6	17.2	23.6	70	15.3	5	13	90	0.00	30.071 
03:50	23.6	18.4	23.6	71	15.6	4	13	112	0.00	30.071 
03:55	23.6	18.4	23.6	71	15.6	4	12	112	0.00	30.071 
04:00	23.6	18.4	23.6	71	15.6	4	11	45	0.00	30.062 
04:05	23.5	17.1	23.5	71	15.5	5	12	45	0.00	30.062 
04:10	23.5	15.3	23.5	71	15.5	7	18	112	0.00	30.062 
04:15	23.3	15.9	23.3	71	15.3	6	14	112	0.00	30.031 
04:20	23.3	15.9	23.3	72	15.6	6	15	112	0.00	30.031 
04:25	23.3	15.0	23.3	71	15.3	7	14	112	0.00	30.031 
04:30	23.2	16.7	23.2	70	14.9	5	12	112	0.00	30.010 
04:35	23.2	15.8	23.2	70	14.9	6	12	45	0.00	30.010 
04:40	23.2	16.7	23.2	70	14.9	5	12	22	0.00	30.010 
04:45	23.2	16.7	23.2	70	14.9	5	12	112	0.00	30.003 
04:50	23.0	16.5	23.0	69	14.4	5	12	45	0.00	30.003 
04:55	23.0	16.5	23.0	69	14.4	5	11	112	0.00	30.003 
05:00	23.0	15.5	23.0	68	14.0	6	15	68	0.00	30.004 
05:05	23.0	16.5	23.0	68	14.0	5	13	112	0.00	30.004 
05:10	22.9	16.4	22.9	66	13.3	5	12	112	0.00	30.004 
05:15	22.9	15.4	22.9	66	13.3	6	14	90	0.00	30.013 
05:20	22.9	13.8	22.9	64	12.6	8	18	112	0.00	30.013 
05:25	22.9	15.4	22.9	64	12.6	6	13	112	0.00	30.013 
05:30	22.7	14.3	22.7	62	11.7	7	16	90	0.00	29.990 
05:35	22.7	17.3	22.7	63	12.0	4	11	22	0.00	29.990 
05:40	22.7	15.2	22.7	62	11.7	6	16	112	0.00	29.990 
05:45	22.7	16.2	22.7	62	11.7	5	14	45	0.00	29.980 
05:50	22.7	16.2	22.7	62	11.7	5	13	112	0.00	29.980 
05:55	22.7	16.2	22.7	61	11.3	5	14	90	0.00	29.980 
06:00	22.9	16.4	22.9	60	11.1	5	18	112	0.00	29.985 
06:05	22.9	16.4	22.9	60	11.1	5	14	112	0.00	29.985 
06:10	22.9	16.4	22.9	60	11.1	5	17	112	0.00	29.985 
06:15	22.9	16.4	22.9	59	10.7	5	13	22	0.00	29.984 
06:20	23.0	17.7	23.0	60	11.2	4	11	90	0.00	29.984 
06:25	23.0	15.5	23.0	59	10.8	6	15	112	0.00	29.984 
06:30	23.0	16.5	23.0	59	10.8	5	11	112	0.00	29.999 
06:35	23.0	17.7	23.0	60	11.2	4	7	90	0.00	29.999 
06:40	23.0	16.5	23.0	59	10.8	5	14	45	0.00	29.999 
06:45	23.0	16.5	23.0	59	10.8	5	12	22	0.00	29.988 
06:50	23.2	15.8	23.2	59	11.0	6	13	112	0.00	29.988 
06:55	23.2	16.7	23.2	60	11.4	5	14	112	0.00	29.988 
07:00	23.2	16.7	23.2	60	11.4	5	13	112	0.00	29.984 
07:05	23.2	16.7	23.2	60	11.4	5	15	68	0.00	29.984 
07:10	23.3	15.0	23.3	60	11.5	7	15	112	0.00	29.984 
07:15	23.3	16.9	23.3	60	11.5	5	12	22	0.00	30.003 
07:20	23.3	16.9	23.3	60	11.5	5	12	112	0.00	30.003 
07:25	23.5	18.3	23.5	61	12.1	4	10	112	0.00	30.003 
07:30	23.5	17.1	23.5	61	12.1	5	15	112	0.00	30.005 
07:35	23.6	18.4	23.6	62	12.5	4	10	90	0.00	30.005 
07:40	23.6	17.2	23.6	61	12.2	5	13	90	0.00	30.005 
07:45	23.6	14.6	23.6	60	11.8	8	15	112	0.00	30.009 
07:50	23.6	18.4	23.6	61	12.2	4	12	112	0.00	30.009 
07:55	23.8	17.4	23.8	61	12.3	5	15	112	0.00	30.009 
08:00	23.8	17.4	23.8	62	12.7	5	12	90	0.00	30.005 
08:05	23.8	15.6	23.8	61	12.3	7	15	112	0.00	30.005 
08:10	23.9	17.6	23.9	62	12.8	5	13	90	0.00	30.005 
08:15	23.9	16.6	23.9	62	12.8	6	15	112	0.00	29.988 
08:20	23.9	16.6	23.9	61	12.4	6	13	90	0.00	29.988 
08:25	24.1	17.8	24.1	62	13.0	5	12	112	0.00	29.988 
08:30	24.1	17.8	24.1	62	13.0	5	12	112	0.00	29.978 
08:35	24.2	17.9	24.2	60	12.3	5	17	90	0.00	29.978 
08:40	24.2	17.9	24.2	61	12.7	5	13	112	0.00	29.978 
08:45	24.4	14.9	24.4	60	12.5	9	20	112	0.00	29.991 
08:50	24.4	18.1	24.4	60	12.5	5	14	112	0.00	29.991 
08:55	24.5	18.3	24.5	60	12.6	5	15	112	0.00	29.991 
09:00	24.7	18.5	24.7	58	12.1	5	14	112	0.00	29.994 
09:05	24.7	16.7	24.7	58	12.1	7	19	112	0.00	29.994 
09:10	24.7	17.5	24.7	59	12.4	6	16	112	0.00	29.994 
09:15	24.8	18.6	24.8	58	12.1	5	15	112	0.00	29.996 
09:20	24.8	16.1	24.8	55	11.0	8	17	112	0.00	29.996 
09:25	24.8	18.6	24.8	58	12.1	5	15	45	0.00	29.996 
09:30	25.0	18.9	25.0	58	12.3	5	14	90	0.00	30.003 
09:35	25.0	17.9	25.0	57	11.9	6	16	112	0.00	30.003 
09:40	25.0	17.9	25.0	58	12.3	6	14	112	0.00	30.003 
09:45	25.1	17.2	25.1	57	12.0	7	14	112	0.00	30.008 
09:50	25.3	18.3	25.3	57	12.2	6	14	112	0.00	30.008 
09:55	25.4	19.3	25.4	58	12.7	5	11	112	0.00	30.008 
10:00	25.4	19.3	25.4	56	11.9	5	14	90	0.00	30.009 
10:05	25.4	20.5	25.4	56	11.9	4	13	112	0.00	30.009 
10:10	25.6	19.6	25.6	56	12.1	5	11	22	0.00	30.009 
10:15	25.7	19.7	25.7	55	11.8	5	14	90	0.00	30.001 
10:20	25.7	18.7	25.7	54	11.4	6	16	112	0.00	30.001 
10:25	25.8	18.8	25.8	54	11.5	6	13	112	0.00	30.001 
10:30	25.8	18.0	25.8	53	11.1	7	17	112	0.00	29.996 
10:35	25.7	18.7	25.7	53	11.0	6	12	112	0.00	29.996 
10:40	25.7	18.7	25.7	55	11.8	6	16	90	0.00	29.996 
10:45	25.6	18.6	25.6	54	11.3	6	12	112	0.00	29.994 
10:50	25.6	18.6	25.6	54	11.3	6	15	112	0.00	29.994 
10:55	25.7	19.7	25.7	54	11.4	5	16	112	0.00	29.994 
11:00	25.8	19.8	25.8	54	11.5	5	12	45	0.00	29.993 
11:05	25.8	18.8	25.8	53	11.1	6	15	112	0.00	29.993 
11:10	25.8	20.9	25.8	55	11.9	4	13	22	0.00	29.993 
11:15	26.1	20.1	26.1	54	11.8	5	12	112	0.00	29.991 
11:20	26.3	19.4	26.3	53	11.5	6	13	112	0.00	29.991 
11:25	26.3	18.6	26.3	52	11.1	7	19	112	0.00	29.991 
11:30	26.3	20.4	26.3	51	10.7	5	12	112	0.00	29.991 
11:35	26.4	20.5	26.4	52	11.2	5	11	22	0.00	29.991 
11:40	26.6	20.7	26.6	56	13.0	5	13	112	0.00	29.991 
11:45	26.7	20.9	26.7	52	11.5	5	12	112	0.00	29.987 
11:50	27.0	22.3	27.0	51	11.3	4	12	112	0.00	29.987 
11:55	27.2	20.5	27.2	50	11.1	6	12	112	0.00	29.987 
12:00	27.5	21.8	27.5	50	11.3	5	13	45	0.00	29.982 
12:05	27.8	22.1	27.8	50	11.6	5	13	112	0.00	29.982 
12:10	27.9	23.3	27.9	48	10.8	4	9	45	0.00	29.982 
12:15	28.1	23.6	28.1	50	11.9	4	12	112	0.00	29.979 
12:20	27.9	21.3	27.9	49	11.2	6	13	112	0.00	29.979 
12:25	28.2	28.2	28.2	50	12.0	3	6	22	0.00	29.979 
12:30	28.4	28.4	28.4	49	11.7	3	8	90	0.00	29.977 
12:35	28.5	28.5	28.5	49	11.8	3	10	45	0.00	29.977 
12:40	28.5	24.0	28.5	47	10.9	4	11	90	0.00	29.977 
12:45	28.5	28.5	28.5	48	11.3	3	11	68	0.00	29.978 
12:50	28.5	24.0	28.5	47	10.9	4	10	68	0.00	29.978 
12:55	28.4	23.9	28.4	47	10.8	4	12	112	0.00	29.978 
13:00	28.4	28.4	28.4	48	11.2	3	11	68	0.00	29.981 
13:05	28.5	28.5	28.5	48	11.3	3	13	112	0.00	29.981 
13:10	28.5	28.5	28.5	48	11.3	3	7	22	0.00	29.981 
13:15	28.5	28.5	28.5	47	10.9	3	10	90	0.00	29.981 
13:20	28.7	28.7	28.7	46	10.6	3	6	90	0.00	29.981 
13:25	28.7	23.2	28.7	45	10.1	5	12	112	0.00	29.981 
13:30	28.8	24.4	28.8	46	10.7	4	12	112	0.00	29.978 
13:35	29.1	29.1	29.1	46	10.9	3	8	90	0.00	29.978 
13:40	29.5	25.2	29.5	46	11.3	4	13	112	0.00	29.978 
13:45	29.8	29.8	29.8	47	12.1	2	7	45	0.00	29.977 
13:50	30.0	25.8	30.0	45	11.3	4	7	112	0.00	29.977 
13:55	30.3	26.1	30.3	46	12.0	4	11	45	0.00	29.977 
14:00	30.4	30.4	30.4	47	12.6	3	8	90	0.00	29.976 
14:05	30.9	30.9	30.9	46	12.6	3	6	112	0.00	29.976 
14:10	31.0	31.0	31.0	43	11.2	3	10	112	0.00	29.976 
14:15	30.9	30.9	30.9	43	11.1	2	7	68	0.00	29.975 
14:20	31.5	31.5	31.5	44	12.1	2	4	68	0.00	29.975 
14:25	31.8	31.8	31.8	43	11.9	2	7	68	0.00	29.975 
14:30	32.1	32.1	32.1	43	12.2	2	10	68	0.00	29.972 
14:35	32.2	32.2	32.2	43	12.2	3	9	90	0.00	29.972 
14:40	31.9	31.9	31.9	45	13.0	3	6	90	0.00	29.972 
14:45	31.8	31.8	31.8	44	12.4	2	10	45	0.00	29.974 
14:50	31.8	31.8	31.8	44	12.4	3	7	112	0.00	29.974 
14:55	31.6	31.6	31.6	44	12.2	2	7	0	0.00	29.974 
15:00	31.8	31.8	31.8	42	11.4	2	7	0	0.00	29.973 
15:05	32.1	32.1	32.1	42	11.6	2	7	112	0.00	29.973 
15:10	32.1	32.1	32.1	42	11.6	2	5	45	0.00	29.973 
15:15	32.1	32.1	32.1	42	11.6	3	10	112	0.00	29.974 
15:20	32.1	32.1	32.1	42	11.6	3	6	135	0.00	29.974 
15:25	32.2	32.2	32.2	43	12.2	3	6	68	0.00	29.974 
15:30	32.5	32.5	32.5	44	13.0	2	6	90	0.00	29.974 
15:35	32.8	32.8	32.8	43	12.8	2	5	0	0.00	29.974 
15:40	33.1	33.1	33.1	43	13.1	2	5	0	0.00	29.974 
15:45	33.2	33.2	33.2	43	13.2	2	10	68	0.00	29.974 
15:50	33.2	33.2	33.2	44	13.7	2	6	90	0.00	29.974 
15:55	33.4	33.4	33.4	44	13.9	3	10	90	0.00	29.974 
16:00	33.5	33.5	33.5	43	13.4	2	5	90	0.00	29.973 
16:05	33.7	33.7	33.7	44	14.1	2	5	22	0.00	29.973 
16:10	33.7	33.7	33.7	44	14.1	2	5	45	0.00	29.973 
16:15	33.5	33.5	33.5	44	14.0	2	6	45	0.00	29.976 
16:20	33.7	33.7	33.7	44	14.1	2	4	0	0.00	29.976 
16:25	33.7	33.7	33.7	44	14.1	2	4	22	0.00	29.976 
16:30	33.5	33.5	33.5	43	13.4	1	4	315	0.00	29.976 
16:35	33.7	33.7	33.7	47	15.6	2	6	22	0.00	29.976 
16:40	33.8	33.8	33.8	45	14.7	1	6	45	0.00	29.976 
16:45	33.7	33.7	33.7	45	14.6	2	5	22	0.00	29.979 
16:50	33.5	33.5	33.5	45	14.5	2	9	0	0.00	29.979 
16:55	33.5	33.5	33.5	45	14.5	2	7	22	0.00	29.979 
17:00	33.4	33.4	33.4	46	14.9	2	10	45	0.00	29.982 
17:05	33.5	33.5	33.5	47	15.5	2	6	90	0.00	29.982 
17:10	33.5	33.5	33.5	47	15.5	1	5	0	0.00	29.982 
17:15	33.2	33.2	33.2	46	14.7	2	5	338	0.00	29.986 
17:20	33.1	33.1	33.1	47	15.1	2	9	0	0.00	29.986 
17:25	33.1	33.1	33.1	46	14.6	1	4	0	0.00	29.986 
17:30	33.1	33.1	33.1	47	15.1	1	3	22	0.00	29.990 
17:35	33.1	33.1	33.1	47	15.1	1	3	292	0.00	29.990 
17:40	33.1	33.1	33.1	46	14.6	2	5	0	0.00	29.990 
17:45	33.1	33.1	33.1	48	15.6	1	3	0	0.00	29.996 
17:50	32.9	32.9	32.9	49	15.9	2	4	338	0.00	29.996 
17:55	32.8	32.8	32.8	49	15.8	1	4	22	0.00	29.996 
18:00	32.7	32.7	32.7	50	16.1	1	4	0	0.00	30.002 
18:05	32.7	32.7	32.7	50	16.1	1	4	0	0.00	30.002 
18:10	32.5	32.5	32.5	49	15.5	2	5	22	0.00	30.002 
18:15	32.5	32.5	32.5	52	16.9	2	6	338	0.00	30.007 
18:20	32.4	32.4	32.4	56	18.5	2	5	315	0.00	30.007 
18:25	32.2	32.2	32.2	56	18.3	1	3	315	0.00	30.007 
18:30	31.9	31.9	31.9	56	18.0	1	4	0	0.00	30.022 
18:35	31.5	31.5	31.5	57	18.0	2	5	22	0.00	30.022 
18:40	31.3	31.3	31.3	57	17.9	1	3	292	0.00	30.022 
18:45	31.2	31.2	31.2	58	18.2	1	5	45	0.00	30.031 
18:50	30.9	30.9	30.9	58	17.9	1	6	0	0.00	30.031 
18:55	30.6	30.6	30.6	58	17.6	1	4	338	0.00	30.031 
19:00	30.3	30.3	30.3	58	17.3	1	3	0	0.00	30.040 
19:05	30.1	30.1	30.1	59	17.5	1	5	315	0.00	30.040 
19:10	29.8	29.8	29.8	60	17.6	1	4	315	0.00	30.040 
19:15	29.8	29.8	29.8	59	17.2	2	6	338	0.00	30.041 
19:20	29.8	29.8	29.8	59	17.2	1	5	338	0.00	30.041 
19:25	29.5	29.5	29.5	59	17.0	1	3	338	0.00	30.041 
19:30	29.4	29.4	29.4	61	17.6	1	3	0	0.00	30.052 
19:35	29.3	29.3	29.3	60	17.2	1	6	0	0.00	30.052 
19:40	29.1	29.1	29.1	59	16.6	1	3	338	0.00	30.052 
19:45	29.1	29.1	29.1	59	16.6	1	2	338	0.00	30.055 
19:50	29.0	29.0	29.0	59	16.5	1	3	0	0.00	30.055 
19:55	28.8	28.8	28.8	59	16.3	0	2	0	0.00	30.055 
20:00	28.5	28.5	28.5	60	16.4	0	1	0	0.00	30.057 
20:05	28.4	28.4	28.4	60	16.3	0	3	270	0.00	30.057 
20:10	28.2	28.2	28.2	60	16.1	0	2	292	0.00	30.057 
20:15	28.1	28.1	28.1	60	16.0	0	1	292	0.00	30.060 
20:20	27.9	27.9	27.9	60	15.8	0	1	292	0.00	30.060 
20:25	27.6	27.6	27.6	60	15.6	0	1	292	0.00	30.060 
20:30	27.5	27.5	27.5	60	15.5	0	1	292	0.00	30.063 
20:35	27.3	27.3	27.3	60	15.3	0	1	292	0.00	30.063 
20:40	27.2	27.2	27.2	61	15.6	0	1	292	0.00	30.063 
20:45	27.0	27.0	27.0	61	15.4	0	1	292	0.00	30.062 
20:50	26.7	26.7	26.7	61	15.1	0	0	---	0.00	30.062 
20:55	26.6	26.6	26.6	62	15.4	0	0	---	0.00	30.062 
21:00	26.3	26.3	26.3	62	15.1	0	0	---	0.00	30.069 
21:05	26.1	26.1	26.1	63	15.3	0	1	292	0.00	30.069 
21:10	26.0	26.0	26.0	63	15.2	0	0	---	0.00	30.069 
21:15	25.8	25.8	25.8	64	15.3	0	0	---	0.00	30.072 
21:20	25.7	25.7	25.7	64	15.2	0	0	---	0.00	30.072 
21:25	25.6	25.6	25.6	65	15.5	0	0	---	0.00	30.072 
21:30	25.4	25.4	25.4	65	15.3	0	0	---	0.00	30.074 
21:35	25.3	25.3	25.3	65	15.2	0	0	---	0.00	30.074 
21:40	25.1	25.1	25.1	66	15.4	0	0	---	0.00	30.074 
21:45	25.1	25.1	25.1	67	15.7	0	1	292	0.00	30.077 
21:50	25.1	25.1	25.1	67	15.7	0	2	292	0.00	30.077 
21:55	25.1	25.1	25.1	67	15.7	0	1	292	0.00	30.077 
22:00	25.1	25.1	25.1	67	15.7	0	1	292	0.00	30.078 
22:05	25.3	25.3	25.3	67	15.9	0	1	292	0.00	30.078 
22:10	25.3	25.3	25.3	67	15.9	0	1	292	0.00	30.078 
22:15	25.4	25.4	25.4	67	16.0	0	1	292	0.00	30.078 
22:20	25.4	25.4	25.4	67	16.0	0	1	292	0.00	30.078 
22:25	25.3	25.3	25.3	67	15.9	0	1	292	0.00	30.078 
22:30	25.3	25.3	25.3	67	15.9	0	2	292	0.00	30.081 
22:35	25.3	25.3	25.3	68	16.2	0	2	292	0.00	30.081 
22:40	25.3	25.3	25.3	69	16.6	0	1	270	0.00	30.081 
22:45	25.3	25.3	25.3	69	16.6	0	1	270	0.00	30.082 
22:50	25.4	25.4	25.4	70	17.0	0	1	270	0.00	30.082 
22:55	25.4	25.4	25.4	71	17.3	0	1	270	0.00	30.082 
23:00	25.4	25.4	25.4	71	17.3	0	1	270	0.00	30.082 
23:05	25.6	25.6	25.6	71	17.5	0	2	270	0.00	30.082 
23:10	25.6	25.6	25.6	72	17.8	1	3	248	0.00	30.082 
23:15	25.6	25.6	25.6	73	18.2	0	2	248	0.00	30.084 
23:20	25.4	25.4	25.4	73	18.0	0	2	270	0.00	30.084 
23:25	25.4	25.4	25.4	73	18.0	1	2	270	0.00	30.084 
23:30	25.4	25.4	25.4	74	18.3	0	2	270	0.00	30.089 
23:35	25.6	25.6	25.6	74	18.5	1	2	270	0.00	30.089 
23:40	25.4	25.4	25.4	74	18.3	0	1	292	0.00	30.089 
23:45	25.4	25.4	25.4	75	18.6	0	2	292	0.00	30.098 
23:50	25.4	25.4	25.4	75	18.6	0	2	315	0.00	30.098 
23:55	25.3	25.3	25.3	75	18.5	0	2	315	0.00	30.098 

CoCoRaHS
IN-AL-39
A2 Web Hosting
Creative Commons License
GoDaddy
Look for:

loaded 2017-12-13 10:10:41 • last modified 2010-11-18 10:43:29
Privacy PolicyDisclaimer
• wx.awcolley.com is powered by PmWiki v.2002016 •
• all content (unless otherwise noted) © 2017 A W Colley